createdAt,value
2022-10-18T00:02:22.196Z,7.15
2022-10-18T00:04:48.801Z,8.10
2022-10-18T00:07:15.412Z,7.68
2022-10-18T00:09:41.983Z,7.75
2022-10-18T00:12:08.483Z,7.60
2022-10-18T00:14:35.047Z,7.32
2022-10-18T00:17:01.696Z,8.02
2022-10-18T00:19:29.369Z,7.68
2022-10-18T00:21:56.365Z,7.35
2022-10-18T00:24:22.872Z,7.72
2022-10-18T00:26:49.355Z,7.75
2022-10-18T00:29:16.543Z,7.70
2022-10-18T00:31:43.689Z,7.60
2022-10-18T00:34:13.135Z,8.65
2022-10-18T00:36:40.286Z,7.43
2022-10-18T00:39:08.033Z,10.10
2022-10-18T00:41:36.508Z,10.45
2022-10-18T00:44:07.618Z,10.50
2022-10-18T00:46:36.259Z,10.35
2022-10-18T00:49:16.209Z,11.27
2022-10-18T00:51:46.445Z,11.05
2022-10-18T00:54:14.000Z,11.65
2022-10-18T00:56:40.891Z,10.73
2022-10-18T00:59:07.953Z,13.60
2022-10-18T01:01:34.562Z,11.65
2022-10-18T01:04:01.241Z,11.07
2022-10-18T01:06:28.589Z,11.13
2022-10-18T01:09:10.262Z,10.15
2022-10-18T01:11:56.996Z,10.02
2022-10-18T01:14:33.106Z,10.10
2022-10-18T01:17:04.036Z,11.55
2022-10-18T01:19:39.394Z,13.75
2022-10-18T01:22:11.908Z,12.25
2022-10-18T01:24:46.278Z,12.90
2022-10-18T01:27:43.397Z,12.48
2022-10-18T01:30:27.894Z,12.80
2022-10-18T01:33:00.527Z,12.70
2022-10-18T01:35:31.465Z,12.60
2022-10-18T01:38:00.694Z,12.57
2022-10-18T01:40:28.424Z,11.55
2022-10-18T01:42:55.444Z,13.52
2022-10-18T01:45:23.325Z,14.45
2022-10-18T01:47:50.115Z,13.40
2022-10-18T01:50:28.485Z,12.98
2022-10-18T01:52:54.967Z,13.20
2022-10-18T01:55:43.089Z,14.13
2022-10-18T01:58:14.400Z,14.00
2022-10-18T02:00:44.917Z,13.43
2022-10-18T02:03:20.769Z,14.40
2022-10-18T02:05:51.322Z,13.05
2022-10-18T02:08:24.007Z,13.93
2022-10-18T02:11:03.831Z,13.30
2022-10-18T02:13:35.088Z,13.13
2022-10-18T02:16:06.414Z,12.95
2022-10-18T02:21:29.828Z,12.98
2022-10-18T02:23:57.933Z,12.77
2022-10-18T02:26:24.816Z,13.82
2022-10-18T02:28:51.767Z,13.20
2022-10-18T02:31:37.348Z,15.43
2022-10-18T02:34:15.264Z,14.85
2022-10-18T02:36:51.948Z,14.40
2022-10-18T02:39:21.695Z,14.98
2022-10-18T02:41:48.295Z,15.00
2022-10-18T02:44:15.097Z,14.93
2022-10-18T02:46:41.812Z,16.25
2022-10-18T02:49:08.310Z,13.27
2022-10-18T02:51:34.875Z,15.73
2022-10-18T02:54:01.419Z,14.48
2022-10-18T02:56:27.900Z,14.20
2022-10-18T02:58:54.447Z,14.40
2022-10-18T03:01:20.960Z,14.73
2022-10-18T03:03:49.440Z,16.58
2022-10-18T03:06:15.948Z,16.08
2022-10-18T03:08:42.496Z,15.50
2022-10-18T03:11:08.968Z,15.88
2022-10-18T03:13:35.518Z,15.60
2022-10-18T03:16:02.181Z,16.58
2022-10-18T03:18:28.881Z,18.50
2022-10-18T03:20:55.368Z,15.45
2022-10-18T03:23:21.944Z,15.65
2022-10-18T03:25:48.413Z,17.05
2022-10-18T03:28:14.918Z,18.50
2022-10-18T03:30:41.399Z,16.67
2022-10-18T03:33:07.934Z,20.20
2022-10-18T03:35:34.430Z,20.42
2022-10-18T03:38:01.036Z,19.85
2022-10-18T03:40:27.652Z,20.67
2022-10-18T03:42:56.851Z,22.17
2022-10-18T03:45:27.485Z,21.30
2022-10-18T03:47:56.991Z,21.20
2022-10-18T03:50:23.497Z,22.92
2022-10-18T03:52:50.003Z,24.73
2022-10-18T03:55:16.501Z,23.63
2022-10-18T03:57:43.149Z,22.33
2022-10-18T04:00:10.544Z,23.38
2022-10-18T04:02:40.872Z,23.75
2022-10-18T04:05:07.689Z,22.00
2022-10-18T04:07:38.009Z,30.67
2022-10-18T04:10:04.796Z,29.27
2022-10-18T04:12:31.672Z,24.92
2022-10-18T04:14:58.556Z,24.98
2022-10-18T04:17:25.077Z,24.48
2022-10-18T04:19:51.585Z,26.35
2022-10-18T04:22:18.122Z,27.58
2022-10-18T04:24:44.669Z,26.80
2022-10-18T04:27:11.225Z,25.23
2022-10-18T04:29:37.709Z,25.63
2022-10-18T04:32:04.388Z,27.50
2022-10-18T04:34:31.007Z,27.50
2022-10-18T04:36:57.628Z,27.55
2022-10-18T04:39:24.093Z,28.88
2022-10-18T04:41:50.667Z,29.38
2022-10-18T04:44:17.173Z,29.90
2022-10-18T04:46:43.660Z,31.00
2022-10-18T04:49:10.147Z,33.20
2022-10-18T04:51:36.725Z,31.30
2022-10-18T04:54:03.369Z,29.00
2022-10-18T04:56:29.950Z,29.45
2022-10-18T04:58:56.487Z,30.02
2022-10-18T05:01:23.039Z,31.73
2022-10-18T05:03:54.162Z,32.78
2022-10-18T05:06:21.494Z,31.92
2022-10-18T05:08:48.184Z,32.00
2022-10-18T05:11:14.760Z,34.83
2022-10-18T05:13:41.332Z,32.67
2022-10-18T05:16:07.900Z,35.05
2022-10-18T05:18:34.386Z,34.60
2022-10-18T05:21:00.898Z,33.90
2022-10-18T05:23:27.435Z,34.83
2022-10-18T05:25:54.017Z,34.42
2022-10-18T05:28:38.794Z,39.10
2022-10-18T05:31:07.797Z,36.25
2022-10-18T05:33:34.766Z,34.35
2022-10-18T05:36:01.557Z,33.08
2022-10-18T05:38:30.891Z,43.80
2022-10-18T05:40:58.467Z,34.28
2022-10-18T05:43:28.760Z,34.80
2022-10-18T05:45:55.645Z,35.28
2022-10-18T05:48:22.350Z,37.15
2022-10-18T05:50:48.833Z,36.20
2022-10-18T05:53:35.105Z,36.28
2022-10-18T05:56:02.688Z,34.83
2022-10-18T05:58:29.298Z,37.50
2022-10-18T06:01:01.324Z,39.28
2022-10-18T06:03:28.356Z,37.67
2022-10-18T06:06:06.566Z,39.47
2022-10-18T06:08:33.470Z,39.22
2022-10-18T06:11:00.127Z,39.17
2022-10-18T06:13:27.156Z,38.67
2022-10-18T06:15:57.646Z,39.33
2022-10-18T06:18:24.288Z,39.38
2022-10-18T06:20:56.726Z,40.42
2022-10-18T06:23:23.204Z,40.60
2022-10-18T06:25:49.783Z,38.80
2022-10-18T06:28:16.275Z,43.40
2022-10-18T06:30:42.766Z,43.28
2022-10-18T06:33:11.814Z,44.25
2022-10-18T06:35:38.261Z,42.55
2022-10-18T06:38:06.146Z,45.75
2022-10-18T06:40:37.766Z,45.78
2022-10-18T06:43:19.958Z,46.35
2022-10-18T06:45:47.468Z,44.90
2022-10-18T06:48:14.063Z,46.13
2022-10-18T06:50:40.634Z,46.50
2022-10-18T06:53:08.882Z,48.83
2022-10-18T06:55:35.940Z,47.10
2022-10-18T06:58:02.497Z,46.92
2022-10-18T07:00:29.025Z,47.85
2022-10-18T07:02:57.478Z,48.75
2022-10-18T07:05:24.143Z,47.25
2022-10-18T07:07:54.237Z,49.47
2022-10-18T07:10:23.879Z,48.85
2022-10-18T07:12:53.501Z,49.28
2022-10-18T07:15:24.003Z,49.05
2022-10-18T07:17:50.552Z,49.58
2022-10-18T07:20:17.189Z,49.72
2022-10-18T07:22:43.695Z,49.55
2022-10-18T07:25:10.265Z,51.70
2022-10-18T07:27:41.696Z,51.28
2022-10-18T07:32:35.425Z,49.47
2022-10-18T07:35:02.472Z,49.60
2022-10-18T07:37:30.290Z,47.95
2022-10-18T07:39:56.929Z,51.85
2022-10-18T07:42:23.402Z,49.65
2022-10-18T07:44:49.879Z,48.35
2022-10-18T07:47:16.458Z,51.10
2022-10-18T07:49:42.999Z,49.97
2022-10-18T07:52:09.598Z,51.42
2022-10-18T07:54:36.183Z,49.63
2022-10-18T07:57:04.456Z,50.45
2022-10-18T07:59:30.926Z,48.72
2022-10-18T08:01:57.466Z,50.15
2022-10-18T08:04:23.971Z,45.67
2022-10-18T08:06:50.438Z,46.90
2022-10-18T08:09:16.901Z,47.50
2022-10-18T08:11:43.510Z,49.72
2022-10-18T08:14:09.982Z,49.67
2022-10-18T08:16:36.499Z,50.47
2022-10-18T08:19:03.139Z,50.00
2022-10-18T08:21:29.672Z,49.50
2022-10-18T08:23:56.160Z,51.15
2022-10-18T08:26:23.331Z,55.75
2022-10-18T08:29:03.564Z,55.03
2022-10-18T08:31:36.643Z,54.08
2022-10-18T08:34:03.155Z,59.00
2022-10-18T08:36:29.704Z,58.97
2022-10-18T08:38:56.223Z,59.22
2022-10-18T08:41:32.699Z,58.72
2022-10-18T08:44:17.741Z,61.67
2022-10-18T08:46:46.945Z,58.90
2022-10-18T08:49:34.701Z,65.43
2022-10-18T08:52:01.855Z,64.13
2022-10-18T08:54:41.352Z,60.88
2022-10-18T08:57:13.675Z,62.75
2022-10-18T08:59:40.816Z,61.63
2022-10-18T09:02:10.120Z,63.08
2022-10-18T09:04:45.578Z,63.53
2022-10-18T09:07:38.071Z,62.58
2022-10-18T09:10:30.943Z,59.92
2022-10-18T09:13:10.547Z,56.55
2022-10-18T09:15:45.837Z,57.55
2022-10-18T09:18:28.177Z,60.20
2022-10-18T09:20:59.463Z,58.28
2022-10-18T09:26:15.084Z,57.50
2022-10-18T09:28:41.710Z,56.20
2022-10-18T09:31:20.662Z,54.67
2022-10-18T09:33:56.918Z,53.42
2022-10-18T09:36:26.324Z,49.00
2022-10-18T09:38:58.549Z,50.95
2022-10-18T09:41:34.192Z,47.90
2022-10-18T09:44:03.675Z,48.05
2022-10-18T09:46:33.931Z,48.15
2022-10-18T09:49:04.989Z,46.47
2022-10-18T09:51:37.192Z,45.78
2022-10-18T09:54:24.108Z,46.88
2022-10-18T09:57:03.655Z,45.90
2022-10-18T09:59:34.324Z,46.03
2022-10-18T10:02:00.972Z,43.35
2022-10-18T10:04:28.197Z,46.63
2022-10-18T10:06:56.120Z,43.38
2022-10-18T10:09:50.303Z,44.33
2022-10-18T10:12:33.007Z,44.00
2022-10-18T10:15:19.738Z,46.65
2022-10-18T10:18:17.362Z,45.55
2022-10-18T10:20:49.957Z,46.80
2022-10-18T10:23:28.165Z,47.13
2022-10-18T10:26:00.055Z,50.22
2022-10-18T10:28:30.091Z,48.80
2022-10-18T10:31:18.376Z,46.55
2022-10-18T10:33:47.672Z,41.90
2022-10-18T10:36:20.200Z,40.13
2022-10-18T10:39:03.772Z,39.17
2022-10-18T10:44:04.386Z,37.20
2022-10-18T10:46:35.733Z,37.10
2022-10-18T10:52:08.957Z,31.25
2022-10-18T10:54:47.553Z,29.48
2022-10-18T10:57:22.379Z,27.02
2022-10-18T10:59:49.404Z,29.13
2022-10-18T11:02:21.242Z,26.65
2022-10-18T11:04:50.383Z,27.58
2022-10-18T11:07:32.103Z,24.38
2022-10-18T11:10:07.409Z,26.67
2022-10-18T11:12:38.157Z,25.17
2022-10-18T11:15:11.747Z,24.67
2022-10-18T11:18:00.628Z,25.52
2022-10-18T11:20:40.415Z,25.35
2022-10-18T11:23:17.301Z,25.92
2022-10-18T11:25:43.720Z,25.10
2022-10-18T11:28:18.761Z,26.00
2022-10-18T11:31:03.637Z,23.98
2022-10-18T11:34:08.913Z,22.60
2022-10-18T11:37:22.860Z,23.20
2022-10-18T11:39:58.169Z,20.17
2022-10-18T11:42:39.982Z,19.33
2022-10-18T11:45:37.502Z,18.80
2022-10-18T11:48:42.738Z,16.58
2022-10-18T11:52:07.698Z,20.35
2022-10-18T11:54:57.676Z,21.73
2022-10-18T11:57:33.294Z,22.02
2022-10-18T12:00:15.835Z,20.00
2022-10-18T12:03:54.389Z,18.67
2022-10-18T12:06:22.665Z,17.05
2022-10-18T12:09:34.164Z,17.38
2022-10-18T12:12:03.060Z,15.73
2022-10-18T12:14:35.376Z,17.08
2022-10-18T12:17:40.728Z,16.80
2022-10-18T12:20:02.358Z,16.80
2022-10-18T12:22:35.500Z,15.43
2022-10-18T12:25:02.540Z,17.10
2022-10-18T12:27:36.961Z,17.35
2022-10-18T12:30:07.456Z,15.68
2022-10-18T12:32:35.151Z,15.15
2022-10-18T12:35:06.858Z,15.45
2022-10-18T12:38:02.413Z,14.75
2022-10-18T12:40:44.132Z,14.40
2022-10-18T12:43:17.328Z,14.93
2022-10-18T12:45:54.452Z,14.07
2022-10-18T12:48:42.552Z,12.88
2022-10-18T12:51:17.520Z,12.80
2022-10-18T12:53:46.049Z,13.48
2022-10-18T12:56:27.412Z,12.57
2022-10-18T12:59:32.140Z,12.38
2022-10-18T13:02:20.100Z,11.90
2022-10-18T13:04:48.196Z,10.60
2022-10-18T13:07:20.944Z,11.93
2022-10-18T13:10:15.236Z,11.00
2022-10-18T13:12:41.944Z,10.85
2022-10-18T13:15:37.962Z,11.60
2022-10-18T13:18:22.297Z,10.82
2022-10-18T13:21:07.991Z,12.50
2022-10-18T13:23:57.756Z,12.55
2022-10-18T13:26:45.323Z,13.10
2022-10-18T13:29:40.851Z,13.23
2022-10-18T13:32:22.921Z,13.40
2022-10-18T13:34:49.655Z,13.57
2022-10-18T13:37:16.222Z,13.82
2022-10-18T13:39:42.973Z,13.50
2022-10-18T13:42:15.212Z,13.30
2022-10-18T13:44:44.422Z,13.77
2022-10-18T13:47:31.735Z,12.93
2022-10-18T13:50:03.199Z,12.13
2022-10-18T13:53:00.673Z,13.23
2022-10-18T13:55:52.030Z,13.45
2022-10-18T13:59:05.708Z,12.50
2022-10-18T14:01:58.638Z,11.65
2022-10-18T14:04:31.287Z,10.77
2022-10-18T14:07:02.244Z,12.68
2022-10-18T14:12:32.647Z,10.10
2022-10-18T14:15:07.627Z,8.00
2022-10-18T14:17:36.447Z,7.78
2022-10-18T14:20:16.316Z,7.05
2022-10-18T14:22:51.011Z,8.15
2022-10-18T14:25:36.128Z,7.00
2022-10-18T14:28:27.430Z,7.85
2022-10-18T14:31:08.265Z,7.47
2022-10-18T14:33:47.330Z,7.32
2022-10-18T14:36:16.425Z,6.30
2022-10-18T14:38:48.191Z,6.30
2022-10-18T14:41:22.518Z,5.60
2022-10-18T14:43:49.703Z,5.63
2022-10-18T14:46:26.624Z,6.35
2022-10-18T14:49:02.160Z,5.70
2022-10-18T14:51:31.674Z,5.45
2022-10-18T14:53:58.294Z,4.80
2022-10-18T14:56:29.707Z,4.03
2022-10-18T15:01:26.371Z,3.78
2022-10-18T15:03:57.580Z,3.95
2022-10-18T15:06:24.497Z,4.32
2022-10-18T15:08:56.603Z,3.55
2022-10-18T15:11:24.086Z,4.03
2022-10-18T15:14:08.701Z,3.38
2022-10-18T15:16:38.321Z,4.20
2022-10-18T15:19:24.762Z,3.35
2022-10-18T15:25:10.733Z,5.05
2022-10-18T15:27:39.619Z,4.10
2022-10-18T15:30:17.091Z,3.25
2022-10-18T15:32:49.412Z,3.97
2022-10-18T15:35:24.970Z,3.75
2022-10-18T15:37:53.932Z,3.53
2022-10-18T15:40:23.103Z,3.50
2022-10-18T15:42:51.151Z,3.67
2022-10-18T15:45:23.341Z,3.65
2022-10-18T15:48:01.066Z,3.42
2022-10-18T15:50:47.605Z,5.05
2022-10-18T15:53:20.075Z,3.80
2022-10-18T15:56:00.359Z,3.15
2022-10-18T15:58:46.242Z,2.80
2022-10-18T16:01:41.955Z,3.22
2022-10-18T16:04:29.583Z,3.40
2022-10-18T16:06:57.529Z,3.50
2022-10-18T16:09:26.026Z,3.20
2022-10-18T16:11:56.775Z,3.75
2022-10-18T16:14:26.278Z,3.83
2022-10-18T16:16:56.178Z,3.17
2022-10-18T16:19:22.947Z,3.42
2022-10-18T16:21:50.631Z,3.30
2022-10-18T16:24:17.684Z,3.67
2022-10-18T16:26:44.489Z,4.03
2022-10-18T16:29:13.966Z,3.33
2022-10-18T16:31:40.712Z,3.35
2022-10-18T16:34:10.772Z,4.05
2022-10-18T16:36:37.747Z,3.38
2022-10-18T16:39:09.131Z,3.72
2022-10-18T16:41:35.762Z,3.67
2022-10-18T16:44:02.319Z,4.72
2022-10-18T16:46:30.867Z,5.15
2022-10-18T16:48:57.533Z,4.93
2022-10-18T16:51:24.471Z,4.40
2022-10-18T16:53:53.213Z,4.30
2022-10-18T16:56:20.427Z,5.15
2022-10-18T16:58:47.317Z,4.47
2022-10-18T17:01:16.560Z,5.20
2022-10-18T17:03:43.543Z,4.32
2022-10-18T17:06:27.781Z,5.10
2022-10-18T17:08:55.330Z,4.20
2022-10-18T17:11:25.026Z,4.75
2022-10-18T17:13:51.584Z,4.60
2022-10-18T17:19:03.943Z,4.93
2022-10-18T17:21:31.571Z,4.82
2022-10-18T17:24:05.859Z,4.47
2022-10-18T17:26:32.980Z,5.88
2022-10-18T17:29:02.106Z,4.93
2022-10-18T17:31:30.194Z,5.10
2022-10-18T17:33:58.451Z,4.20
2022-10-18T17:36:25.706Z,5.13
2022-10-18T17:38:55.103Z,5.15
2022-10-18T17:41:21.931Z,5.50
2022-10-18T17:43:48.701Z,4.65
2022-10-18T17:46:15.836Z,6.28
2022-10-18T17:48:42.768Z,5.55
2022-10-18T17:51:14.757Z,5.43
2022-10-18T17:53:41.421Z,4.90
2022-10-18T17:56:08.346Z,5.15
2022-10-18T17:58:35.224Z,6.13
2022-10-18T18:01:15.294Z,5.50
2022-10-18T18:03:41.886Z,7.20
2022-10-18T18:06:19.271Z,6.35
2022-10-18T18:08:47.487Z,6.65
2022-10-18T18:11:15.829Z,6.20
2022-10-18T18:13:44.057Z,6.20
2022-10-18T18:16:22.012Z,7.10
2022-10-18T18:18:51.230Z,6.00
2022-10-18T18:21:19.196Z,6.32
2022-10-18T18:23:46.293Z,6.18
2022-10-18T18:26:13.819Z,6.32
2022-10-18T18:28:40.773Z,7.18
2022-10-18T18:31:09.149Z,6.15
2022-10-18T18:33:36.461Z,5.47
2022-10-18T18:36:04.800Z,5.80
2022-10-18T18:38:31.922Z,5.97
2022-10-18T18:41:04.193Z,7.30
2022-10-18T18:43:30.739Z,6.47
2022-10-18T18:45:57.238Z,6.80
2022-10-18T18:48:23.972Z,5.88
2022-10-18T18:50:51.782Z,6.45
2022-10-18T18:53:18.830Z,6.22
2022-10-18T18:55:45.388Z,5.93
2022-10-18T18:58:12.063Z,5.75
2022-10-18T19:00:43.333Z,5.47
2022-10-18T19:03:13.864Z,5.45
2022-10-18T19:05:42.868Z,5.80
2022-10-18T19:08:09.483Z,5.88
2022-10-18T19:10:36.076Z,5.15
2022-10-18T19:13:02.941Z,6.68
2022-10-18T19:15:29.566Z,6.35
2022-10-18T19:17:56.443Z,6.57
2022-10-18T19:20:23.180Z,7.22
2022-10-18T19:22:50.108Z,7.72
2022-10-18T19:25:16.940Z,6.80
2022-10-18T19:27:43.755Z,7.75
2022-10-18T19:30:11.718Z,6.65
2022-10-18T19:32:38.510Z,6.65
2022-10-18T19:35:05.547Z,6.75
2022-10-18T19:37:32.796Z,5.65
2022-10-18T19:39:59.842Z,5.85
2022-10-18T19:42:31.203Z,7.00
2022-10-18T19:44:58.499Z,7.30
2022-10-18T19:47:25.307Z,6.43
2022-10-18T19:49:53.733Z,6.05
2022-10-18T19:52:20.582Z,6.53
2022-10-18T19:54:48.805Z,6.38
2022-10-18T19:57:15.704Z,7.13
2022-10-18T19:59:42.416Z,8.00
2022-10-18T20:02:14.171Z,5.88
2022-10-18T20:04:41.052Z,6.50
2022-10-18T20:07:10.802Z,7.43
2022-10-18T20:09:38.093Z,7.95
2022-10-18T20:12:04.839Z,9.15
2022-10-18T20:14:31.357Z,8.80
2022-10-18T20:16:57.930Z,8.60
2022-10-18T20:19:24.661Z,9.02
2022-10-18T20:21:51.251Z,9.45
2022-10-18T20:24:17.815Z,8.35
2022-10-18T20:26:44.419Z,8.38
2022-10-18T20:29:11.052Z,8.18
2022-10-18T20:31:39.142Z,8.40
2022-10-18T20:34:11.434Z,8.25
2022-10-18T20:36:38.515Z,8.23
2022-10-18T20:39:06.079Z,8.35
2022-10-18T20:41:35.238Z,8.82
2022-10-18T20:44:10.657Z,9.50
2022-10-18T20:46:38.403Z,10.40
2022-10-18T20:49:06.704Z,9.13
2022-10-18T20:51:34.093Z,8.85
2022-10-18T20:54:01.817Z,10.05
2022-10-18T20:56:28.408Z,8.77
2022-10-18T20:58:56.573Z,9.30
2022-10-18T21:01:28.912Z,9.13
2022-10-18T21:03:57.227Z,9.02
2022-10-18T21:06:26.209Z,9.10
2022-10-18T21:08:54.442Z,9.35
2022-10-18T21:11:21.657Z,9.55
2022-10-18T21:13:52.605Z,9.57
2022-10-18T21:16:19.387Z,9.32
2022-10-18T21:18:45.898Z,9.18
2022-10-18T21:21:15.087Z,9.48
2022-10-18T21:23:41.856Z,9.75
2022-10-18T21:26:08.885Z,9.27
2022-10-18T21:28:35.430Z,8.88
2022-10-18T21:31:13.448Z,9.05
2022-10-18T21:33:41.229Z,9.30
2022-10-18T21:36:08.128Z,9.88
2022-10-18T21:38:34.699Z,8.02
2022-10-18T21:41:01.674Z,8.93
2022-10-18T21:43:28.168Z,9.55
2022-10-18T21:46:00.575Z,8.48
2022-10-18T21:48:27.490Z,8.77
2022-10-18T21:50:54.450Z,8.93
2022-10-18T21:53:21.330Z,8.15
2022-10-18T21:55:48.278Z,8.23
2022-10-18T21:58:15.009Z,9.15
2022-10-18T22:00:41.613Z,8.00
2022-10-18T22:03:14.648Z,7.55
2022-10-18T22:05:41.184Z,8.18
2022-10-18T22:08:07.785Z,7.25
2022-10-18T22:10:34.523Z,7.30
2022-10-18T22:13:01.353Z,7.18
2022-10-18T22:15:28.013Z,7.18
2022-10-18T22:17:54.549Z,7.72
2022-10-18T22:20:21.069Z,7.70
2022-10-18T22:22:47.601Z,8.88
2022-10-18T22:25:14.141Z,7.07
2022-10-18T22:27:40.705Z,7.63
2022-10-18T22:30:07.736Z,7.75
2022-10-18T22:32:34.288Z,7.53
2022-10-18T22:35:00.988Z,8.25
2022-10-18T22:37:27.685Z,8.18
2022-10-18T22:39:54.228Z,6.35
2022-10-18T22:42:20.852Z,7.20
2022-10-18T22:44:47.393Z,8.02
2022-10-18T22:47:13.873Z,6.65
2022-10-18T22:49:40.418Z,6.70
2022-10-18T22:52:06.986Z,7.43
2022-10-18T22:54:33.488Z,7.07
2022-10-18T22:57:00.057Z,7.25
2022-10-18T22:59:26.581Z,7.07
2022-10-18T23:01:53.165Z,6.53
2022-10-18T23:04:19.697Z,7.75
2022-10-18T23:06:46.574Z,7.78
2022-10-18T23:09:13.241Z,7.00
2022-10-18T23:11:39.772Z,7.32
2022-10-18T23:14:06.476Z,7.43
2022-10-18T23:16:33.125Z,6.55
2022-10-18T23:18:59.883Z,7.82
2022-10-18T23:21:28.125Z,7.35
2022-10-18T23:23:55.645Z,7.25
2022-10-18T23:26:24.345Z,7.10
2022-10-18T23:28:52.790Z,6.65
2022-10-18T23:31:21.717Z,6.47
2022-10-18T23:33:49.703Z,7.05
2022-10-18T23:36:16.376Z,6.90
2022-10-18T23:38:43.317Z,6.75
2022-10-18T23:41:12.486Z,7.47
2022-10-18T23:43:39.516Z,7.20
2022-10-18T23:46:06.188Z,7.38
2022-10-18T23:48:34.170Z,7.35
2022-10-18T23:51:01.389Z,6.60
2022-10-18T23:53:28.119Z,7.47
2022-10-18T23:56:00.458Z,7.68
2022-10-18T23:58:28.526Z,7.32
